sensor_id;sensor_type;location;lat;lon;timestamp;temperature;humidity
18041;DHT22;9145;48.588;9.250;2022-08-11T00:02:33;21.10;83.10
18041;DHT22;9145;48.588;9.250;2022-08-11T00:05:05;21.10;82.40
18041;DHT22;9145;48.588;9.250;2022-08-11T00:07:34;21.00;83.20
18041;DHT22;9145;48.588;9.250;2022-08-11T00:10:01;21.00;83.90
18041;DHT22;9145;48.588;9.250;2022-08-11T00:12:29;21.00;83.20
18041;DHT22;9145;48.588;9.250;2022-08-11T00:14:59;20.90;83.50
18041;DHT22;9145;48.588;9.250;2022-08-11T00:17:28;20.90;83.50
18041;DHT22;9145;48.588;9.250;2022-08-11T00:20:03;20.90;83.30
18041;DHT22;9145;48.588;9.250;2022-08-11T00:22:31;20.80;83.50
18041;DHT22;9145;48.588;9.250;2022-08-11T00:25:00;20.80;83.70
18041;DHT22;9145;48.588;9.250;2022-08-11T00:27:35;20.70;84.20
18041;DHT22;9145;48.588;9.250;2022-08-11T00:30:05;20.60;84.60
18041;DHT22;9145;48.588;9.250;2022-08-11T00:32:32;20.50;85.30
18041;DHT22;9145;48.588;9.250;2022-08-11T00:35:00;20.40;86.40
18041;DHT22;9145;48.588;9.250;2022-08-11T00:37:28;20.40;85.30
18041;DHT22;9145;48.588;9.250;2022-08-11T00:39:56;20.50;85.00
18041;DHT22;9145;48.588;9.250;2022-08-11T00:42:31;20.60;84.90
18041;DHT22;9145;48.588;9.250;2022-08-11T00:45:11;20.60;84.60
18041;DHT22;9145;48.588;9.250;2022-08-11T00:47:47;20.60;84.60
18041;DHT22;9145;48.588;9.250;2022-08-11T00:50:25;20.60;84.90
18041;DHT22;9145;48.588;9.250;2022-08-11T00:53:04;20.50;84.80
18041;DHT22;9145;48.588;9.250;2022-08-11T01:02:19;20.40;85.60
18041;DHT22;9145;48.588;9.250;2022-08-11T01:05:03;20.30;86.00
18041;DHT22;9145;48.588;9.250;2022-08-11T01:10:50;20.30;85.90
18041;DHT22;9145;48.588;9.250;2022-08-11T01:13:46;20.20;86.70
18041;DHT22;9145;48.588;9.250;2022-08-11T01:19:53;20.00;87.30
18041;DHT22;9145;48.588;9.250;2022-08-11T01:28:54;20.10;86.50
18041;DHT22;9145;48.588;9.250;2022-08-11T01:35:07;20.20;86.10
18041;DHT22;9145;48.588;9.250;2022-08-11T01:41:25;20.30;85.90
18041;DHT22;9145;48.588;9.250;2022-08-11T01:44:33;20.10;85.90
18041;DHT22;9145;48.588;9.250;2022-08-11T01:47:13;20.10;86.40
18041;DHT22;9145;48.588;9.250;2022-08-11T01:50:13;20.10;86.20
18041;DHT22;9145;48.588;9.250;2022-08-11T01:55:51;20.10;86.30
18041;DHT22;9145;48.588;9.250;2022-08-11T01:58:28;20.00;86.60
18041;DHT22;9145;48.588;9.250;2022-08-11T02:01:01;19.90;86.90
18041;DHT22;9145;48.588;9.250;2022-08-11T02:03:38;20.00;86.90
18041;DHT22;9145;48.588;9.250;2022-08-11T02:06:15;20.00;86.70
18041;DHT22;9145;48.588;9.250;2022-08-11T02:09:08;20.00;86.70
18041;DHT22;9145;48.588;9.250;2022-08-11T02:11:39;20.00;86.80
18041;DHT22;9145;48.588;9.250;2022-08-11T02:14:27;20.00;86.90
18041;DHT22;9145;48.588;9.250;2022-08-11T02:17:03;20.00;86.80
18041;DHT22;9145;48.588;9.250;2022-08-11T02:19:38;19.90;87.10
18041;DHT22;9145;48.588;9.250;2022-08-11T02:22:34;19.80;87.40
18041;DHT22;9145;48.588;9.250;2022-08-11T02:25:33;19.80;87.70
18041;DHT22;9145;48.588;9.250;2022-08-11T02:28:05;19.80;87.70
18041;DHT22;9145;48.588;9.250;2022-08-11T02:30:37;19.70;88.80
18041;DHT22;9145;48.588;9.250;2022-08-11T02:33:15;19.80;88.10
18041;DHT22;9145;48.588;9.250;2022-08-11T02:35:56;19.70;88.30
18041;DHT22;9145;48.588;9.250;2022-08-11T02:38:31;19.60;88.50
18041;DHT22;9145;48.588;9.250;2022-08-11T02:41:07;19.50;89.00
18041;DHT22;9145;48.588;9.250;2022-08-11T02:44:09;19.40;89.90
18041;DHT22;9145;48.588;9.250;2022-08-11T02:46:47;19.20;91.20
18041;DHT22;9145;48.588;9.250;2022-08-11T02:49:33;18.90;92.10
18041;DHT22;9145;48.588;9.250;2022-08-11T02:52:28;18.70;92.80
18041;DHT22;9145;48.588;9.250;2022-08-11T02:55:20;18.50;93.00
18041;DHT22;9145;48.588;9.250;2022-08-11T02:57:53;18.40;92.90
18041;DHT22;9145;48.588;9.250;2022-08-11T03:00:23;18.40;92.90
18041;DHT22;9145;48.588;9.250;2022-08-11T03:03:06;18.40;93.10
18041;DHT22;9145;48.588;9.250;2022-08-11T03:05:57;18.10;94.10
18041;DHT22;9145;48.588;9.250;2022-08-11T03:08:40;17.80;94.90
18041;DHT22;9145;48.588;9.250;2022-08-11T03:11:21;17.60;95.30
18041;DHT22;9145;48.588;9.250;2022-08-11T03:14:14;17.70;93.90
18041;DHT22;9145;48.588;9.250;2022-08-11T03:17:09;17.80;93.30
18041;DHT22;9145;48.588;9.250;2022-08-11T03:19:45;18.10;92.90
18041;DHT22;9145;48.588;9.250;2022-08-11T03:22:20;18.20;92.70
18041;DHT22;9145;48.588;9.250;2022-08-11T03:24:55;18.40;92.40
18041;DHT22;9145;48.588;9.250;2022-08-11T03:27:33;18.40;92.30
18041;DHT22;9145;48.588;9.250;2022-08-11T03:30:09;18.50;92.20
18041;DHT22;9145;48.588;9.250;2022-08-11T03:32:45;18.50;92.20
18041;DHT22;9145;48.588;9.250;2022-08-11T03:35:39;18.50;92.20
18041;DHT22;9145;48.588;9.250;2022-08-11T03:38:11;18.60;92.20
18041;DHT22;9145;48.588;9.250;2022-08-11T03:40:50;18.60;92.00
18041;DHT22;9145;48.588;9.250;2022-08-11T03:43:54;18.60;92.50
18041;DHT22;9145;48.588;9.250;2022-08-11T03:46:35;18.60;92.20
18041;DHT22;9145;48.588;9.250;2022-08-11T03:49:24;18.50;92.30
18041;DHT22;9145;48.588;9.250;2022-08-11T03:51:58;18.40;92.50
18041;DHT22;9145;48.588;9.250;2022-08-11T03:54:42;18.40;92.60
18041;DHT22;9145;48.588;9.250;2022-08-11T04:03:59;18.10;93.50
18041;DHT22;9145;48.588;9.250;2022-08-11T04:09:56;18.30;93.00
18041;DHT22;9145;48.588;9.250;2022-08-11T04:12:52;18.20;93.40
18041;DHT22;9145;48.588;9.250;2022-08-11T04:18:57;18.00;94.30
18041;DHT22;9145;48.588;9.250;2022-08-11T04:25:04;17.90;93.90
18041;DHT22;9145;48.588;9.250;2022-08-11T04:28:05;17.90;93.80
18041;DHT22;9145;48.588;9.250;2022-08-11T04:30:50;18.10;93.60
18041;DHT22;9145;48.588;9.250;2022-08-11T04:33:57;18.10;93.50
18041;DHT22;9145;48.588;9.250;2022-08-11T04:36:40;18.10;93.50
18041;DHT22;9145;48.588;9.250;2022-08-11T04:39:42;18.10;93.60
18041;DHT22;9145;48.588;9.250;2022-08-11T04:42:54;18.10;93.70
18041;DHT22;9145;48.588;9.250;2022-08-11T04:49:12;17.80;94.50
18041;DHT22;9145;48.588;9.250;2022-08-11T04:52:33;17.90;94.60
18041;DHT22;9145;48.588;9.250;2022-08-11T04:55:56;17.80;94.90
18041;DHT22;9145;48.588;9.250;2022-08-11T04:58:58;17.80;94.90
18041;DHT22;9145;48.588;9.250;2022-08-11T05:02:06;17.80;95.30
18041;DHT22;9145;48.588;9.250;2022-08-11T05:04:52;17.80;94.80
18041;DHT22;9145;48.588;9.250;2022-08-11T05:10:51;17.80;95.10
18041;DHT22;9145;48.588;9.250;2022-08-11T05:13:27;17.90;94.80
18041;DHT22;9145;48.588;9.250;2022-08-11T05:16:16;17.90;94.60
18041;DHT22;9145;48.588;9.250;2022-08-11T05:19:02;18.00;94.80
18041;DHT22;9145;48.588;9.250;2022-08-11T05:21:52;18.00;94.60
18041;DHT22;9145;48.588;9.250;2022-08-11T05:24:42;18.10;94.70
18041;DHT22;9145;48.588;9.250;2022-08-11T05:27:31;18.10;94.70
18041;DHT22;9145;48.588;9.250;2022-08-11T05:30:17;18.30;94.60
18041;DHT22;9145;48.588;9.250;2022-08-11T05:33:04;18.30;94.60
18041;DHT22;9145;48.588;9.250;2022-08-11T05:35:56;18.30;94.40
18041;DHT22;9145;48.588;9.250;2022-08-11T05:38:30;18.40;94.30
18041;DHT22;9145;48.588;9.250;2022-08-11T05:41:19;18.50;94.20
18041;DHT22;9145;48.588;9.250;2022-08-11T05:44:05;18.60;94.20
18041;DHT22;9145;48.588;9.250;2022-08-11T05:46:50;18.70;94.00
18041;DHT22;9145;48.588;9.250;2022-08-11T05:49:35;18.80;93.90
18041;DHT22;9145;48.588;9.250;2022-08-11T05:52:23;18.80;93.90
18041;DHT22;9145;48.588;9.250;2022-08-11T05:55:09;18.80;94.00
18041;DHT22;9145;48.588;9.250;2022-08-11T05:57:56;18.90;94.10
18041;DHT22;9145;48.588;9.250;2022-08-11T06:00:25;19.00;94.10
18041;DHT22;9145;48.588;9.250;2022-08-11T06:02:54;19.00;94.10
18041;DHT22;9145;48.588;9.250;2022-08-11T06:05:22;19.20;93.60
18041;DHT22;9145;48.588;9.250;2022-08-11T06:07:53;19.20;93.60
18041;DHT22;9145;48.588;9.250;2022-08-11T06:10:28;19.30;93.60
18041;DHT22;9145;48.588;9.250;2022-08-11T06:12:58;19.40;93.40
18041;DHT22;9145;48.588;9.250;2022-08-11T06:15:27;19.50;93.40
18041;DHT22;9145;48.588;9.250;2022-08-11T06:17:54;19.50;93.50
18041;DHT22;9145;48.588;9.250;2022-08-11T06:20:26;19.50;93.50
18041;DHT22;9145;48.588;9.250;2022-08-11T06:22:59;19.60;93.60
18041;DHT22;9145;48.588;9.250;2022-08-11T06:25:34;19.70;93.50
18041;DHT22;9145;48.588;9.250;2022-08-11T06:28:04;19.70;93.30
18041;DHT22;9145;48.588;9.250;2022-08-11T06:30:34;19.80;93.40
18041;DHT22;9145;48.588;9.250;2022-08-11T06:33:07;19.90;93.20
18041;DHT22;9145;48.588;9.250;2022-08-11T06:35:44;19.90;93.20
18041;DHT22;9145;48.588;9.250;2022-08-11T06:38:21;20.00;93.20
18041;DHT22;9145;48.588;9.250;2022-08-11T06:40:53;20.10;93.10
18041;DHT22;9145;48.588;9.250;2022-08-11T06:43:47;20.10;93.20
18041;DHT22;9145;48.588;9.250;2022-08-11T06:46:19;20.20;93.10
18041;DHT22;9145;48.588;9.250;2022-08-11T06:48:49;20.30;93.40
18041;DHT22;9145;48.588;9.250;2022-08-11T06:51:16;20.40;93.30
18041;DHT22;9145;48.588;9.250;2022-08-11T06:53:44;20.40;93.20
18041;DHT22;9145;48.588;9.250;2022-08-11T06:56:14;20.50;93.30
18041;DHT22;9145;48.588;9.250;2022-08-11T06:59:00;20.60;93.20
18041;DHT22;9145;48.588;9.250;2022-08-11T07:01:52;20.70;93.30
18041;DHT22;9145;48.588;9.250;2022-08-11T07:04:29;20.90;93.00
18041;DHT22;9145;48.588;9.250;2022-08-11T07:07:13;20.90;93.10
18041;DHT22;9145;48.588;9.250;2022-08-11T07:10:22;21.00;93.10
18041;DHT22;9145;48.588;9.250;2022-08-11T07:13:13;21.10;93.30
18041;DHT22;9145;48.588;9.250;2022-08-11T07:15:58;21.10;92.90
18041;DHT22;9145;48.588;9.250;2022-08-11T07:18:28;21.10;92.90
18041;DHT22;9145;48.588;9.250;2022-08-11T07:21:20;21.20;92.90
18041;DHT22;9145;48.588;9.250;2022-08-11T07:24:10;21.40;92.80
18041;DHT22;9145;48.588;9.250;2022-08-11T07:26:57;21.50;93.40
18041;DHT22;9145;48.588;9.250;2022-08-11T07:29:45;21.60;92.50
18041;DHT22;9145;48.588;9.250;2022-08-11T07:32:19;21.70;92.60
18041;DHT22;9145;48.588;9.250;2022-08-11T07:34:54;21.70;92.10
18041;DHT22;9145;48.588;9.250;2022-08-11T07:37:23;21.80;92.20
18041;DHT22;9145;48.588;9.250;2022-08-11T07:39:50;21.80;92.00
18041;DHT22;9145;48.588;9.250;2022-08-11T07:42:21;22.00;92.20
18041;DHT22;9145;48.588;9.250;2022-08-11T07:44:51;22.20;91.80
18041;DHT22;9145;48.588;9.250;2022-08-11T07:47:38;22.40;91.70
18041;DHT22;9145;48.588;9.250;2022-08-11T07:50:23;22.50;91.70
18041;DHT22;9145;48.588;9.250;2022-08-11T07:53:08;22.60;91.40
18041;DHT22;9145;48.588;9.250;2022-08-11T07:55:36;22.70;91.10
18041;DHT22;9145;48.588;9.250;2022-08-11T07:58:03;22.80;91.30
18041;DHT22;9145;48.588;9.250;2022-08-11T08:00:52;23.10;90.70
18041;DHT22;9145;48.588;9.250;2022-08-11T08:03:39;23.10;91.10
18041;DHT22;9145;48.588;9.250;2022-08-11T08:06:23;23.10;90.50
18041;DHT22;9145;48.588;9.250;2022-08-11T08:09:09;23.10;90.50
18041;DHT22;9145;48.588;9.250;2022-08-11T08:11:54;23.20;90.40
18041;DHT22;9145;48.588;9.250;2022-08-11T08:14:38;23.40;90.50
18041;DHT22;9145;48.588;9.250;2022-08-11T08:17:24;23.40;90.50
18041;DHT22;9145;48.588;9.250;2022-08-11T08:20:12;23.60;90.00
18041;DHT22;9145;48.588;9.250;2022-08-11T08:22:40;23.80;90.20
18041;DHT22;9145;48.588;9.250;2022-08-11T08:25:08;23.90;88.90
18041;DHT22;9145;48.588;9.250;2022-08-11T08:27:36;24.00;88.40
18041;DHT22;9145;48.588;9.250;2022-08-11T08:30:05;24.10;88.10
18041;DHT22;9145;48.588;9.250;2022-08-11T08:32:51;24.20;86.70
18041;DHT22;9145;48.588;9.250;2022-08-11T08:35:22;24.30;86.50
18041;DHT22;9145;48.588;9.250;2022-08-11T08:37:49;24.30;86.00
18041;DHT22;9145;48.588;9.250;2022-08-11T08:40:17;24.40;86.40
18041;DHT22;9145;48.588;9.250;2022-08-11T08:42:48;24.40;85.80
18041;DHT22;9145;48.588;9.250;2022-08-11T08:45:18;24.50;85.30
18041;DHT22;9145;48.588;9.250;2022-08-11T08:47:47;24.60;86.00
18041;DHT22;9145;48.588;9.250;2022-08-11T08:50:20;24.80;85.90
18041;DHT22;9145;48.588;9.250;2022-08-11T08:52:52;24.90;85.00
18041;DHT22;9145;48.588;9.250;2022-08-11T08:55:20;25.10;85.50
18041;DHT22;9145;48.588;9.250;2022-08-11T08:57:49;25.30;84.10
18041;DHT22;9145;48.588;9.250;2022-08-11T09:00:18;25.50;84.20
18041;DHT22;9145;48.588;9.250;2022-08-11T09:02:46;25.60;82.60
18041;DHT22;9145;48.588;9.250;2022-08-11T09:05:19;25.80;83.00
18041;DHT22;9145;48.588;9.250;2022-08-11T09:07:49;25.90;79.90
18041;DHT22;9145;48.588;9.250;2022-08-11T09:10:22;26.10;80.50
18041;DHT22;9145;48.588;9.250;2022-08-11T09:12:50;26.20;80.60
18041;DHT22;9145;48.588;9.250;2022-08-11T09:15:17;26.30;78.70
18041;DHT22;9145;48.588;9.250;2022-08-11T09:17:47;26.40;78.50
18041;DHT22;9145;48.588;9.250;2022-08-11T09:20:20;26.50;79.30
18041;DHT22;9145;48.588;9.250;2022-08-11T09:22:50;26.70;80.10
18041;DHT22;9145;48.588;9.250;2022-08-11T09:25:34;26.80;78.40
18041;DHT22;9145;48.588;9.250;2022-08-11T09:28:20;26.90;77.20
18041;DHT22;9145;48.588;9.250;2022-08-11T09:30:49;27.00;76.80
18041;DHT22;9145;48.588;9.250;2022-08-11T09:33:20;27.10;76.20
18041;DHT22;9145;48.588;9.250;2022-08-11T09:35:50;27.30;76.70
18041;DHT22;9145;48.588;9.250;2022-08-11T09:38:19;27.40;76.40
18041;DHT22;9145;48.588;9.250;2022-08-11T09:41:06;27.40;73.80
18041;DHT22;9145;48.588;9.250;2022-08-11T09:43:37;27.50;74.80
18041;DHT22;9145;48.588;9.250;2022-08-11T09:46:24;27.60;74.20
18041;DHT22;9145;48.588;9.250;2022-08-11T09:48:54;27.70;71.60
18041;DHT22;9145;48.588;9.250;2022-08-11T09:51:25;27.70;71.60
18041;DHT22;9145;48.588;9.250;2022-08-11T09:53:57;27.70;69.90
18041;DHT22;9145;48.588;9.250;2022-08-11T09:56:25;27.80;70.00
18041;DHT22;9145;48.588;9.250;2022-08-11T09:59:09;27.90;70.00
18041;DHT22;9145;48.588;9.250;2022-08-11T10:01:41;28.10;68.00
18041;DHT22;9145;48.588;9.250;2022-08-11T10:04:12;28.20;69.70
18041;DHT22;9145;48.588;9.250;2022-08-11T10:06:43;28.50;70.20
18041;DHT22;9145;48.588;9.250;2022-08-11T10:09:35;28.60;68.70
18041;DHT22;9145;48.588;9.250;2022-08-11T10:12:03;28.70;66.70
18041;DHT22;9145;48.588;9.250;2022-08-11T10:14:33;28.70;65.50
18041;DHT22;9145;48.588;9.250;2022-08-11T10:17:21;28.70;65.10
18041;DHT22;9145;48.588;9.250;2022-08-11T10:19:49;28.80;66.40
18041;DHT22;9145;48.588;9.250;2022-08-11T10:22:17;28.90;66.90
18041;DHT22;9145;48.588;9.250;2022-08-11T10:25:03;29.00;65.70
18041;DHT22;9145;48.588;9.250;2022-08-11T10:27:48;29.10;66.30
18041;DHT22;9145;48.588;9.250;2022-08-11T10:30:19;29.20;65.70
18041;DHT22;9145;48.588;9.250;2022-08-11T10:33:03;29.30;63.70
18041;DHT22;9145;48.588;9.250;2022-08-11T10:35:48;29.30;64.90
18041;DHT22;9145;48.588;9.250;2022-08-11T10:38:17;29.40;63.00
18041;DHT22;9145;48.588;9.250;2022-08-11T10:40:45;29.50;64.90
18041;DHT22;9145;48.588;9.250;2022-08-11T10:43:36;29.70;65.00
18041;DHT22;9145;48.588;9.250;2022-08-11T10:46:06;29.60;62.90
18041;DHT22;9145;48.588;9.250;2022-08-11T10:48:51;29.70;64.20
18041;DHT22;9145;48.588;9.250;2022-08-11T10:51:18;29.80;63.00
18041;DHT22;9145;48.588;9.250;2022-08-11T10:53:49;29.90;65.10
18041;DHT22;9145;48.588;9.250;2022-08-11T10:56:36;29.90;63.00
18041;DHT22;9145;48.588;9.250;2022-08-11T10:59:22;29.90;62.00
18041;DHT22;9145;48.588;9.250;2022-08-11T11:01:51;30.00;63.80
18041;DHT22;9145;48.588;9.250;2022-08-11T11:04:23;30.10;63.40
18041;DHT22;9145;48.588;9.250;2022-08-11T11:07:03;30.20;60.40
18041;DHT22;9145;48.588;9.250;2022-08-11T11:09:40;30.10;59.90
18041;DHT22;9145;48.588;9.250;2022-08-11T11:12:12;30.30;61.30
18041;DHT22;9145;48.588;9.250;2022-08-11T11:14:57;30.40;59.70
18041;DHT22;9145;48.588;9.250;2022-08-11T11:18:00;30.50;58.90
18041;DHT22;9145;48.588;9.250;2022-08-11T11:20:34;30.60;64.20
18041;DHT22;9145;48.588;9.250;2022-08-11T11:23:04;30.70;60.50
18041;DHT22;9145;48.588;9.250;2022-08-11T11:25:43;30.70;60.80
18041;DHT22;9145;48.588;9.250;2022-08-11T11:28:47;30.80;62.30
18041;DHT22;9145;48.588;9.250;2022-08-11T11:31:27;30.90;62.50
18041;DHT22;9145;48.588;9.250;2022-08-11T11:34:14;31.00;59.90
18041;DHT22;9145;48.588;9.250;2022-08-11T11:36:46;30.90;61.10
18041;DHT22;9145;48.588;9.250;2022-08-11T11:39:16;31.10;62.70
18041;DHT22;9145;48.588;9.250;2022-08-11T11:41:46;31.30;61.60
18041;DHT22;9145;48.588;9.250;2022-08-11T11:44:14;31.40;58.40
18041;DHT22;9145;48.588;9.250;2022-08-11T11:46:42;31.40;60.40
18041;DHT22;9145;48.588;9.250;2022-08-11T11:49:12;31.60;58.40
18041;DHT22;9145;48.588;9.250;2022-08-11T11:51:40;31.80;58.70
18041;DHT22;9145;48.588;9.250;2022-08-11T11:54:09;31.80;57.70
18041;DHT22;9145;48.588;9.250;2022-08-11T11:56:36;31.70;58.00
18041;DHT22;9145;48.588;9.250;2022-08-11T11:59:06;31.80;59.00
18041;DHT22;9145;48.588;9.250;2022-08-11T12:02:02;31.80;57.90
18041;DHT22;9145;48.588;9.250;2022-08-11T12:04:30;31.90;59.00
18041;DHT22;9145;48.588;9.250;2022-08-11T12:06:58;32.10;56.50
18041;DHT22;9145;48.588;9.250;2022-08-11T12:09:39;32.10;56.70
18041;DHT22;9145;48.588;9.250;2022-08-11T12:12:06;32.00;56.90
18041;DHT22;9145;48.588;9.250;2022-08-11T12:14:53;32.10;58.40
18041;DHT22;9145;48.588;9.250;2022-08-11T12:17:21;32.10;57.40
18041;DHT22;9145;48.588;9.250;2022-08-11T12:19:48;32.30;57.10
18041;DHT22;9145;48.588;9.250;2022-08-11T12:22:15;32.20;55.60
18041;DHT22;9145;48.588;9.250;2022-08-11T12:25:01;32.20;57.20
18041;DHT22;9145;48.588;9.250;2022-08-11T12:27:46;32.30;57.10
18041;DHT22;9145;48.588;9.250;2022-08-11T12:30:14;32.40;57.60
18041;DHT22;9145;48.588;9.250;2022-08-11T12:32:42;32.50;57.50
18041;DHT22;9145;48.588;9.250;2022-08-11T12:35:09;32.40;56.20
18041;DHT22;9145;48.588;9.250;2022-08-11T12:37:39;32.40;55.90
18041;DHT22;9145;48.588;9.250;2022-08-11T12:40:10;32.40;57.00
18041;DHT22;9145;48.588;9.250;2022-08-11T12:43:00;32.50;56.80
18041;DHT22;9145;48.588;9.250;2022-08-11T12:45:47;32.50;58.00
18041;DHT22;9145;48.588;9.250;2022-08-11T12:48:17;32.60;59.20
18041;DHT22;9145;48.588;9.250;2022-08-11T12:51:05;32.80;56.90
18041;DHT22;9145;48.588;9.250;2022-08-11T12:53:54;32.80;58.60
18041;DHT22;9145;48.588;9.250;2022-08-11T12:56:23;33.00;54.30
18041;DHT22;9145;48.588;9.250;2022-08-11T12:59:09;33.00;55.00
18041;DHT22;9145;48.588;9.250;2022-08-11T13:01:54;33.10;55.60
18041;DHT22;9145;48.588;9.250;2022-08-11T13:04:40;33.20;57.40
18041;DHT22;9145;48.588;9.250;2022-08-11T13:07:17;33.20;55.70
18041;DHT22;9145;48.588;9.250;2022-08-11T13:09:45;33.30;54.90
18041;DHT22;9145;48.588;9.250;2022-08-11T13:12:12;33.20;57.50
18041;DHT22;9145;48.588;9.250;2022-08-11T13:14:58;33.30;58.60
18041;DHT22;9145;48.588;9.250;2022-08-11T13:17:28;33.60;58.40
18041;DHT22;9145;48.588;9.250;2022-08-11T13:19:57;33.70;54.40
18041;DHT22;9145;48.588;9.250;2022-08-11T13:22:25;33.80;57.60
18041;DHT22;9145;48.588;9.250;2022-08-11T13:24:52;33.80;56.80
18041;DHT22;9145;48.588;9.250;2022-08-11T13:27:21;33.60;53.10
18041;DHT22;9145;48.588;9.250;2022-08-11T13:29:49;33.60;54.90
18041;DHT22;9145;48.588;9.250;2022-08-11T13:32:39;33.60;54.90
18041;DHT22;9145;48.588;9.250;2022-08-11T13:35:09;33.70;55.30
18041;DHT22;9145;48.588;9.250;2022-08-11T13:37:38;33.90;56.20
18041;DHT22;9145;48.588;9.250;2022-08-11T13:40:06;34.00;54.10
18041;DHT22;9145;48.588;9.250;2022-08-11T13:42:34;34.20;54.80
18041;DHT22;9145;48.588;9.250;2022-08-11T13:45:02;34.10;52.20
18041;DHT22;9145;48.588;9.250;2022-08-11T13:47:32;34.30;54.30
18041;DHT22;9145;48.588;9.250;2022-08-11T13:50:02;34.30;53.80
18041;DHT22;9145;48.588;9.250;2022-08-11T13:52:30;34.60;54.80
18041;DHT22;9145;48.588;9.250;2022-08-11T13:54:57;34.70;54.70
18041;DHT22;9145;48.588;9.250;2022-08-11T13:57:25;34.60;53.40
18041;DHT22;9145;48.588;9.250;2022-08-11T13:59:53;34.70;54.50
18041;DHT22;9145;48.588;9.250;2022-08-11T14:02:26;34.60;53.50
18041;DHT22;9145;48.588;9.250;2022-08-11T14:04:56;34.40;54.50
18041;DHT22;9145;48.588;9.250;2022-08-11T14:07:29;34.50;54.40
18041;DHT22;9145;48.588;9.250;2022-08-11T14:10:00;34.80;55.90
18041;DHT22;9145;48.588;9.250;2022-08-11T14:12:30;35.10;55.00
18041;DHT22;9145;48.588;9.250;2022-08-11T14:15:19;35.30;51.50
18041;DHT22;9145;48.588;9.250;2022-08-11T14:17:50;35.20;54.20
18041;DHT22;9145;48.588;9.250;2022-08-11T14:20:18;35.30;52.70
18041;DHT22;9145;48.588;9.250;2022-08-11T14:22:48;35.70;53.30
18041;DHT22;9145;48.588;9.250;2022-08-11T14:25:16;35.60;52.70
18041;DHT22;9145;48.588;9.250;2022-08-11T14:27:43;35.70;52.50
18041;DHT22;9145;48.588;9.250;2022-08-11T14:30:14;35.90;53.10
18041;DHT22;9145;48.588;9.250;2022-08-11T14:32:58;35.90;51.00
18041;DHT22;9145;48.588;9.250;2022-08-11T14:35:27;36.00;51.50
18041;DHT22;9145;48.588;9.250;2022-08-11T14:37:56;36.30;50.70
18041;DHT22;9145;48.588;9.250;2022-08-11T14:40:24;36.30;53.10
18041;DHT22;9145;48.588;9.250;2022-08-11T14:43:09;36.30;51.20
18041;DHT22;9145;48.588;9.250;2022-08-11T14:45:55;36.50;50.00
18041;DHT22;9145;48.588;9.250;2022-08-11T14:48:40;36.50;50.70
18041;DHT22;9145;48.588;9.250;2022-08-11T14:51:07;36.70;52.00
18041;DHT22;9145;48.588;9.250;2022-08-11T14:53:36;36.80;52.90
18041;DHT22;9145;48.588;9.250;2022-08-11T14:56:03;36.70;51.80
18041;DHT22;9145;48.588;9.250;2022-08-11T14:58:48;36.80;50.70
18041;DHT22;9145;48.588;9.250;2022-08-11T15:01:15;36.80;52.20
18041;DHT22;9145;48.588;9.250;2022-08-11T15:04:00;37.00;51.20
18041;DHT22;9145;48.588;9.250;2022-08-11T15:06:27;37.20;49.90
18041;DHT22;9145;48.588;9.250;2022-08-11T15:08:55;37.30;50.20
18041;DHT22;9145;48.588;9.250;2022-08-11T15:11:24;37.20;51.40
18041;DHT22;9145;48.588;9.250;2022-08-11T15:14:11;37.20;49.60
18041;DHT22;9145;48.588;9.250;2022-08-11T15:16:41;37.10;51.20
18041;DHT22;9145;48.588;9.250;2022-08-11T15:19:28;37.40;51.20
18041;DHT22;9145;48.588;9.250;2022-08-11T15:21:58;37.50;51.10
18041;DHT22;9145;48.588;9.250;2022-08-11T15:24:44;37.40;50.70
18041;DHT22;9145;48.588;9.250;2022-08-11T15:27:12;37.10;51.60
18041;DHT22;9145;48.588;9.250;2022-08-11T15:29:59;37.10;51.00
18041;DHT22;9145;48.588;9.250;2022-08-11T15:32:44;36.90;51.10
18041;DHT22;9145;48.588;9.250;2022-08-11T15:35:30;37.00;52.90
18041;DHT22;9145;48.588;9.250;2022-08-11T15:38:15;37.00;49.50
18041;DHT22;9145;48.588;9.250;2022-08-11T15:40:47;36.70;51.00
18041;DHT22;9145;48.588;9.250;2022-08-11T15:43:38;36.90;51.30
18041;DHT22;9145;48.588;9.250;2022-08-11T15:46:28;37.10;51.50
18041;DHT22;9145;48.588;9.250;2022-08-11T15:48:59;37.30;50.40
18041;DHT22;9145;48.588;9.250;2022-08-11T15:51:32;37.40;49.90
18041;DHT22;9145;48.588;9.250;2022-08-11T15:54:04;37.50;48.80
18041;DHT22;9145;48.588;9.250;2022-08-11T15:56:37;37.70;49.70
18041;DHT22;9145;48.588;9.250;2022-08-11T15:59:05;38.00;49.40
18041;DHT22;9145;48.588;9.250;2022-08-11T16:01:52;37.80;48.40
18041;DHT22;9145;48.588;9.250;2022-08-11T16:04:37;37.90;49.00
18041;DHT22;9145;48.588;9.250;2022-08-11T16:07:09;38.00;48.30
18041;DHT22;9145;48.588;9.250;2022-08-11T16:09:38;38.10;48.20
18041;DHT22;9145;48.588;9.250;2022-08-11T16:12:10;38.20;48.10
18041;DHT22;9145;48.588;9.250;2022-08-11T16:14:41;38.30;48.00
18041;DHT22;9145;48.588;9.250;2022-08-11T16:17:30;38.30;48.00
18041;DHT22;9145;48.588;9.250;2022-08-11T16:19:58;38.40;47.00
18041;DHT22;9145;48.588;9.250;2022-08-11T16:22:29;38.40;51.30
18041;DHT22;9145;48.588;9.250;2022-08-11T16:25:07;38.50;51.70
18041;DHT22;9145;48.588;9.250;2022-08-11T16:27:39;38.50;49.80
18041;DHT22;9145;48.588;9.250;2022-08-11T16:30:07;38.60;49.40
18041;DHT22;9145;48.588;9.250;2022-08-11T16:32:36;38.70;47.90
18041;DHT22;9145;48.588;9.250;2022-08-11T16:35:07;38.60;46.70
18041;DHT22;9145;48.588;9.250;2022-08-11T16:37:53;38.30;48.80
18041;DHT22;9145;48.588;9.250;2022-08-11T16:40:38;38.00;49.30
18041;DHT22;9145;48.588;9.250;2022-08-11T16:43:12;38.20;49.40
18041;DHT22;9145;48.588;9.250;2022-08-11T16:45:58;38.30;47.30
18041;DHT22;9145;48.588;9.250;2022-08-11T16:48:52;38.10;47.40
18041;DHT22;9145;48.588;9.250;2022-08-11T16:51:21;37.70;46.90
18041;DHT22;9145;48.588;9.250;2022-08-11T16:53:49;37.70;47.60
18041;DHT22;9145;48.588;9.250;2022-08-11T16:56:18;37.80;48.70
18041;DHT22;9145;48.588;9.250;2022-08-11T16:58:53;37.90;48.10
18041;DHT22;9145;48.588;9.250;2022-08-11T17:01:38;37.80;48.10
18041;DHT22;9145;48.588;9.250;2022-08-11T17:04:08;37.80;48.50
18041;DHT22;9145;48.588;9.250;2022-08-11T17:06:54;37.80;47.80
18041;DHT22;9145;48.588;9.250;2022-08-11T17:09:39;37.60;48.20
18041;DHT22;9145;48.588;9.250;2022-08-11T17:12:25;37.50;49.00
18041;DHT22;9145;48.588;9.250;2022-08-11T17:15:16;37.70;48.60
18041;DHT22;9145;48.588;9.250;2022-08-11T17:18:04;37.60;47.90
18041;DHT22;9145;48.588;9.250;2022-08-11T17:20:33;37.70;49.30
18041;DHT22;9145;48.588;9.250;2022-08-11T17:23:01;37.80;48.00
18041;DHT22;9145;48.588;9.250;2022-08-11T17:25:47;37.60;49.20
18041;DHT22;9145;48.588;9.250;2022-08-11T17:28:16;37.50;48.70
18041;DHT22;9145;48.588;9.250;2022-08-11T17:30:46;37.10;47.80
18041;DHT22;9145;48.588;9.250;2022-08-11T17:33:32;36.90;49.40
18041;DHT22;9145;48.588;9.250;2022-08-11T17:36:17;36.60;48.80
18041;DHT22;9145;48.588;9.250;2022-08-11T17:38:46;36.60;49.00
18041;DHT22;9145;48.588;9.250;2022-08-11T17:41:15;36.30;48.90
18041;DHT22;9145;48.588;9.250;2022-08-11T17:44:01;36.10;48.70
18041;DHT22;9145;48.588;9.250;2022-08-11T17:46:48;35.90;49.30